Time;durP1;ratioP1;P1;durP2;ratioP2;P2;SDS_P1;SDS_P2;PMS_P1;PMS_P2;Temp;Humidity;BMP_temperature;BMP_pressure;BME280_temperature;BME280_humidity;BME280_pressure;Samples;Min_cycle;Max_cycle;Signal;HPM_P1;HPM_P2
2020/12/10 00:02:10;;;;;;;55.42;29.95;;;;;;;2.85;92.71;100796.66;5062635;28;19920;-69
2020/12/10 00:04:36;;;;;;;45.88;28.38;;;;;;;2.90;92.72;100808.59;5052342;28;20131;-69
2020/12/10 00:07:01;;;;;;;48.90;28.95;;;;;;;2.94;92.76;100803.13;5063037;28;20123;-69
2020/12/10 00:09:27;;;;;;;48.63;29.63;;;;;;;2.93;92.59;100798.78;5060158;28;20135;-69
2020/12/10 00:11:52;;;;;;;51.50;30.02;;;;;;;2.91;92.88;100797.09;5063782;28;20124;-69
2020/12/10 00:14:18;;;;;;;49.17;28.60;;;;;;;2.80;92.84;100781.19;5059733;28;20109;-69
2020/12/10 00:16:46;;;;;;;50.03;29.15;;;;;;;2.85;93.03;100780.84;5062399;28;20128;-68
2020/12/10 00:19:12;;;;;;;46.80;27.70;;;;;;;2.99;92.40;100796.56;5062359;28;20400;-69
2020/12/10 00:21:37;;;;;;;47.30;29.10;;;;;;;2.92;92.04;100782.09;5063607;28;20119;-68
2020/12/10 00:24:03;;;;;;;48.67;29.90;;;;;;;2.86;92.01;100766.72;5060179;28;20143;-68
2020/12/10 00:26:31;;;;;;;47.28;28.20;;;;;;;2.85;92.18;100775.59;5055222;28;20128;-67
2020/12/10 00:28:56;;;;;;;49.05;28.90;;;;;;;2.86;92.47;100779.91;5057414;28;20037;-68
2020/12/10 00:31:22;;;;;;;47.95;28.42;;;;;;;2.87;92.62;100789.50;5065294;28;20506;-67
2020/12/10 00:33:47;;;;;;;46.10;29.17;;;;;;;2.85;92.45;100780.84;5064211;28;20139;-67
2020/12/10 00:36:13;;;;;;;49.58;28.13;;;;;;;2.85;92.76;100788.75;5068155;28;20163;-67
2020/12/10 00:38:39;;;;;;;45.92;28.95;;;;;;;2.22;92.64;100688.47;5066837;28;20045;-67
2020/12/10 00:41:04;;;;;;;48.60;28.65;;;;;;;2.75;93.15;100778.00;5065922;28;20459;-68
2020/12/10 00:43:30;;;;;;;46.78;29.13;;;;;;;2.82;93.25;100781.06;5062399;28;20135;-69
2020/12/10 00:46:00;;;;;;;47.58;28.63;;;;;;;2.84;92.53;100771.25;5067888;28;20116;-68
2020/12/10 00:48:26;;;;;;;47.80;29.20;;;;;;;2.87;92.91;100776.31;5050790;28;20224;-68
2020/12/10 00:50:52;;;;;;;47.38;27.95;;;;;;;2.71;92.82;100758.09;5067375;28;21287;-68
2020/12/10 00:53:17;;;;;;;44.40;27.13;;;;;;;2.84;92.93;100771.25;5063724;28;20482;-68
2020/12/10 00:55:43;;;;;;;47.75;28.30;;;;;;;2.80;92.55;100775.03;5067702;28;20111;-69
2020/12/10 00:58:09;;;;;;;47.58;29.05;;;;;;;2.80;92.78;100778.53;5047525;28;20131;-68
2020/12/10 01:00:34;;;;;;;44.45;27.90;;;;;;;2.86;92.38;100777.28;5082601;28;20132;-69
2020/12/10 01:03:00;;;;;;;46.22;28.20;;;;;;;2.90;92.43;100773.50;5062356;28;20119;-68
2020/12/10 01:05:25;;;;;;;45.00;27.90;;;;;;;2.92;92.11;100774.19;5064996;28;20029;-68
2020/12/10 01:07:51;;;;;;;44.28;26.48;;;;;;;2.90;92.05;100773.50;5068302;28;20051;-68
2020/12/10 01:10:16;;;;;;;41.05;27.05;;;;;;;2.84;nan;100769.47;5065432;28;20133;-68
2020/12/10 01:12:42;;;;;;;40.88;25.33;;;;;;;2.84;92.00;100768.63;5062309;28;20040;-68
2020/12/10 01:15:07;;;;;;;40.03;26.00;;;;;;;2.87;91.83;100768.41;5065462;28;20106;-68
2020/12/10 01:17:33;;;;;;;37.15;25.00;;;;;;;2.86;91.51;100761.47;5067217;28;20082;-68
2020/12/10 01:19:58;;;;;;;38.60;24.98;;;;;;;2.28;92.07;100664.34;5064260;28;20139;-68
2020/12/10 01:22:24;;;;;;;42.97;25.48;;;;;;;2.83;91.78;100762.53;5063433;28;20526;-68
2020/12/10 01:24:50;;;;;;;38.22;24.95;;;;;;;2.92;91.52;100761.03;5064583;28;20052;-68
2020/12/10 01:27:20;;;;;;;38.00;24.90;;;;;;;2.94;91.72;100760.94;5068033;28;20042;-68
2020/12/10 01:29:46;;;;;;;41.88;25.10;;;;;;;2.91;91.39;100764.63;5067841;28;20041;-68
2020/12/10 01:32:11;;;;;;;36.42;24.13;;;;;;;2.87;91.62;100768.41;5064437;28;20108;-67
2020/12/10 01:34:37;;;;;;;40.90;25.70;;;;;;;2.84;91.47;100756.31;5077912;28;20036;-68
2020/12/10 01:37:02;;;;;;;38.50;24.55;;;;;;;2.62;91.72;100727.94;5065852;28;20135;-68
2020/12/10 01:39:28;;;;;;;36.88;23.35;;;;;;;2.79;91.54;100754.91;5064594;28;20609;-70
2020/12/10 01:41:53;;;;;;;36.78;23.80;;;;;;;2.86;91.47;100764.09;5066038;28;20115;-68
2020/12/10 01:44:37;;;;;;;36.45;23.85;;;;;;;2.88;91.47;100756.94;5064635;28;20097;-68
2020/12/10 01:47:04;;;;;;;36.75;23.23;;;;;;;2.88;91.45;100759.56;5080559;28;20131;-67
2020/12/10 01:49:30;;;;;;;36.05;24.02;;;;;;;2.81;91.34;100747.75;5056443;28;20091;-67
2020/12/10 01:51:56;;;;;;;35.45;23.65;;;;;;;2.83;91.61;100749.34;5063256;28;20053;-68
2020/12/10 01:54:21;;;;;;;35.53;23.60;;;;;;;2.84;91.67;100748.41;5063395;28;20402;-68
2020/12/10 01:56:47;;;;;;;33.28;23.30;;;;;;;2.85;91.51;100752.69;5064892;28;20139;-68
2020/12/10 01:59:13;;;;;;;40.20;22.95;;;;;;;2.67;91.31;100711.81;5064139;28;20116;-67
2020/12/10 02:01:38;;;;;;;34.00;22.35;;;;;;;2.84;91.17;100743.13;5066371;28;20370;-68
2020/12/10 02:04:26;;;;;;;36.83;22.67;;;;;;;2.79;91.75;100733.81;5062144;28;20143;-67
2020/12/10 02:06:52;;;;;;;34.15;21.05;;;;;;;2.74;91.76;100734.13;5058992;28;20036;-67
2020/12/10 02:09:17;;;;;;;34.42;22.17;;;;;;;2.83;91.39;100730.91;5066050;28;20101;-68
2020/12/10 02:11:43;;;;;;;37.33;22.33;;;;;;;2.81;91.90;100726.66;5065350;28;20098;-67
2020/12/10 02:14:08;;;;;;;32.75;21.45;;;;;;;2.83;91.39;100724.75;5038535;28;20071;-68
2020/12/10 02:16:34;;;;;;;33.40;22.35;;;;;;;2.79;91.04;100725.91;5064354;28;20036;-68
2020/12/10 02:18:59;;;;;;;33.70;21.20;;;;;;;2.83;90.95;100735.31;5074533;28;20040;-68
2020/12/10 02:21:25;;;;;;;34.42;21.08;;;;;;;2.78;91.47;100733.00;5065062;28;20035;-67
2020/12/10 02:23:54;;;;;;;35.30;20.58;;;;;;;2.86;90.73;100737.75;5057669;28;20556;-67
2020/12/10 02:26:26;;;;;;;31.85;20.10;;;;;;;2.71;90.95;100708.84;5041238;28;20236;-68
2020/12/10 02:28:51;;;;;;;34.72;21.15;;;;;;;2.71;90.96;100711.47;5062737;28;20445;-67
2020/12/10 02:31:24;;;;;;;32.75;20.25;;;;;;;2.86;90.81;100727.19;5064743;28;20068;-67
2020/12/10 02:33:49;;;;;;;29.92;20.25;;;;;;;2.60;91.08;100690.31;5059874;28;20589;-67
2020/12/10 02:36:15;;;;;;;31.13;20.25;;;;;;;2.79;90.93;100726.78;5058397;28;20275;-67
2020/12/10 02:38:40;;;;;;;34.90;21.52;;;;;;;2.74;91.10;100715.69;5064356;28;20056;-67
2020/12/10 02:41:05;;;;;;;33.00;20.50;;;;;;;2.74;91.24;100713.06;5065519;28;20388;-68
2020/12/10 02:43:31;;;;;;;29.83;20.55;;;;;;;2.58;91.72;100698.28;5062975;28;20048;-68
2020/12/10 02:45:56;;;;;;;31.40;20.40;;;;;;;2.69;91.45;100718.66;5041259;28;20454;-68
2020/12/10 02:48:22;;;;;;;30.58;19.73;;;;;;;2.75;91.65;100718.25;5062439;28;20048;-68
2020/12/10 02:50:47;;;;;;;32.80;20.80;;;;;;;2.78;91.21;100724.25;5065788;28;20123;-67
2020/12/10 02:53:13;;;;;;;32.88;20.95;;;;;;;2.73;91.10;100714.00;5060163;28;20127;-68
2020/12/10 02:55:38;;;;;;;30.58;20.30;;;;;;;2.69;91.57;100713.38;5064910;28;20105;-68
2020/12/10 02:58:04;;;;;;;35.00;21.58;;;;;;;2.66;91.64;100710.94;5065241;28;20043;-68
2020/12/10 03:00:30;;;;;;;34.60;19.73;;;;;;;2.67;91.56;100704.72;5060523;28;20041;-67
2020/12/10 03:02:55;;;;;;;36.97;20.45;;;;;;;2.63;91.33;100699.78;5060082;28;20111;-67
2020/12/10 03:05:21;;;;;;;32.85;19.92;;;;;;;2.71;91.10;100706.22;5064196;28;20875;-67
2020/12/10 03:07:46;;;;;;;31.55;20.60;;;;;;;2.63;90.74;100698.00;5059038;28;20043;-67
2020/12/10 03:10:12;;;;;;;30.05;19.45;;;;;;;2.59;91.19;100704.41;5062600;28;20123;-67
2020/12/10 03:12:37;;;;;;;29.60;19.83;;;;;;;2.55;91.25;100700.31;5052166;28;20060;-67
2020/12/10 03:15:03;;;;;;;30.67;20.27;;;;;;;2.45;91.81;100698.31;5060724;28;20121;-67
2020/12/10 03:17:29;;;;;;;31.17;19.70;;;;;;;2.44;91.93;100693.16;5064808;28;20037;-67
2020/12/10 03:19:55;;;;;;;33.47;19.92;;;;;;;2.37;92.11;100695.34;5063234;28;20538;-68
2020/12/10 03:22:20;;;;;;;32.85;20.58;;;;;;;2.36;92.44;100687.53;5063195;28;20043;-68
2020/12/10 03:24:46;;;;;;;30.65;19.05;;;;;;;2.33;91.94;100688.59;5062084;28;20131;-68
2020/12/10 03:27:11;;;;;;;32.75;19.60;;;;;;;2.35;92.26;100685.84;5063152;28;20414;-68
2020/12/10 03:29:37;;;;;;;35.38;19.90;;;;;;;2.35;92.07;100691.13;5063876;28;20107;-68
2020/12/10 03:32:03;;;;;;;31.67;19.08;;;;;;;2.35;92.02;100691.13;5063346;28;20550;-67
2020/12/10 03:34:28;;;;;;;27.88;18.73;;;;;;;2.39;90.83;100687.34;5058935;28;20483;-68
2020/12/10 03:36:55;;;;;;;30.48;18.88;;;;;;;2.36;91.28;100685.78;5064644;28;20051;-68
2020/12/10 03:39:22;;;;;;;29.40;18.15;;;;;;;2.25;91.47;100673.31;5062292;28;20039;-68
2020/12/10 03:41:47;;;;;;;29.67;18.83;;;;;;;2.34;91.68;100673.63;5030217;28;20032;-68
2020/12/10 03:44:13;;;;;;;27.73;18.17;;;;;;;2.33;91.76;100674.56;5053161;28;20124;-68
2020/12/10 03:46:40;;;;;;;27.60;17.90;;;;;;;2.32;91.72;100670.25;5081552;28;20115;-68
2020/12/10 03:49:06;;;;;;;33.45;19.42;;;;;;;2.30;91.66;100673.00;5056539;28;20055;-68
2020/12/10 03:51:32;;;;;;;27.83;17.90;;;;;;;2.26;90.99;100679.41;5063230;28;20052;-68
2020/12/10 03:53:57;;;;;;;33.70;19.65;;;;;;;2.15;91.95;100674.88;5058541;28;20109;-68
2020/12/10 03:56:23;;;;;;;33.15;19.15;;;;;;;2.17;91.54;100677.41;5060835;28;20123;-68
2020/12/10 03:58:48;;;;;;;33.33;20.00;;;;;;;2.15;91.59;100674.88;5062958;28;20115;-68
2020/12/10 04:01:14;;;;;;;32.63;19.90;;;;;;;2.08;91.52;100663.06;5042311;28;20434;-67
2020/12/10 04:03:40;;;;;;;37.72;21.10;;;;;;;2.06;91.57;100672.84;5042164;28;20060;-68
2020/12/10 04:06:05;;;;;;;33.50;21.30;;;;;;;2.07;91.84;100671.91;5059292;28;20028;-68
2020/12/10 04:08:31;;;;;;;37.28;21.13;;;;;;;1.99;91.40;100675.03;5068587;28;20051;-68
2020/12/10 04:10:57;;;;;;;36.75;21.80;;;;;;;1.95;91.30;100671.78;5068357;28;20049;-68
2020/12/10 04:13:22;;;;;;;32.95;20.55;;;;;;;1.86;91.56;100671.53;5064040;28;20854;-68
2020/12/10 04:15:48;;;;;;;35.70;21.70;;;;;;;1.84;91.82;100664.56;5052920;28;20532;-67
2020/12/10 04:18:13;;;;;;;39.15;21.85;;;;;;;1.79;91.21;100661.44;5065632;28;20486;-68
2020/12/10 04:20:39;;;;;;;37.88;21.83;;;;;;;1.65;91.35;100657.06;5065714;28;20033;-67
2020/12/10 04:23:04;;;;;;;35.05;21.45;;;;;;;1.62;92.05;100664.31;5064445;28;20032;-67
2020/12/10 04:25:31;;;;;;;39.92;22.55;;;;;;;1.59;91.57;100659.25;5067071;28;20410;-67
2020/12/10 04:27:56;;;;;;;40.72;22.83;;;;;;;1.49;92.47;100659.84;5067094;28;20028;-67
2020/12/10 04:30:22;;;;;;;39.97;22.52;;;;;;;1.51;92.06;100660.59;5065397;28;20112;-68
2020/12/10 04:32:48;;;;;;;42.88;23.20;;;;;;;1.45;92.49;100654.88;5065421;28;20041;-68
2020/12/10 04:35:13;;;;;;;40.28;23.58;;;;;;;1.41;92.49;100656.00;5065269;28;20390;-68
2020/12/10 04:37:41;;;;;;;36.08;22.25;;;;;;;1.44;91.82;100661.91;5058428;28;20058;-68
2020/12/10 04:40:07;;;;;;;40.28;22.92;;;;;;;1.40;91.68;100664.84;5065865;28;20071;-69
2020/12/10 04:42:32;;;;;;;37.40;22.23;;;;;;;1.19;91.43;100641.63;5064308;28;20036;-68
2020/12/10 04:44:58;;;;;;;39.20;22.90;;;;;;;1.28;91.43;100680.47;5066211;28;20037;-68
2020/12/10 04:47:24;;;;;;;35.72;22.27;;;;;;;1.21;90.83;100680.00;5073224;28;20041;-68
2020/12/10 04:49:51;;;;;;;38.17;21.73;;;;;;;1.17;91.05;100667.97;5066063;28;20047;-69
2020/12/10 04:52:16;;;;;;;35.92;22.42;;;;;;;1.11;91.33;100665.75;5032337;28;20554;-68
2020/12/10 04:54:42;;;;;;;40.47;22.38;;;;;;;1.15;91.01;100677.78;5042146;28;20024;-68
2020/12/10 04:57:09;;;;;;;36.85;22.00;;;;;;;1.01;91.13;100669.91;5048736;28;20491;-68
2020/12/10 04:59:35;;;;;;;40.97;21.90;;;;;;;0.99;91.22;100677.88;5045920;28;20044;-69
2020/12/10 05:02:00;;;;;;;39.55;22.58;;;;;;;0.88;91.15;100678.53;5068447;28;20040;-69
2020/12/10 05:04:26;;;;;;;37.97;22.00;;;;;;;0.80;91.21;100678.16;5081110;28;20040;-69
2020/12/10 05:06:52;;;;;;;42.15;23.88;;;;;;;0.18;91.48;100587.38;5066822;28;20032;-68
2020/12/10 05:09:19;;;;;;;44.08;23.50;;;;;;;0.66;92.29;100681.66;5062672;28;20048;-69
2020/12/10 05:11:44;;;;;;;43.30;23.98;;;;;;;0.62;91.89;100695.88;5067880;28;20025;-68
2020/12/10 05:14:10;;;;;;;41.22;22.80;;;;;;;0.58;92.07;100691.75;5064517;28;20434;-69
2020/12/10 05:16:36;;;;;;;46.00;24.23;;;;;;;0.50;91.42;100680.88;5064265;28;20569;-68
2020/12/10 05:19:20;;;;;;;46.83;23.10;;;;;;;0.27;91.87;100655.03;5067563;28;20057;-68
2020/12/10 05:22:05;;;;;;;44.63;24.60;;;;;;;0.40;91.47;100684.06;5066652;28;20588;-68
2020/12/10 05:24:30;;;;;;;40.40;22.75;;;;;;;0.41;91.55;100693.59;5064116;28;20049;-67
2020/12/10 05:27:16;;;;;;;44.22;24.38;;;;;;;0.35;91.52;100687.84;5061245;28;20060;-67
2020/12/10 05:29:41;;;;;;;40.03;23.67;;;;;;;0.33;92.39;100692.38;5067926;28;20094;-66
2020/12/10 05:32:07;;;;;;;40.03;23.75;;;;;;;0.24;92.10;100686.72;5048126;28;20105;-67
2020/12/10 05:34:34;;;;;;;41.97;24.23;;;;;;;0.07;91.96;100673.75;5063141;28;20070;-68
2020/12/10 05:37:01;;;;;;;44.67;25.73;;;;;;;0.13;92.57;100695.25;5066796;28;20057;-68
2020/12/10 05:39:27;;;;;;;42.95;24.35;;;;;;;0.13;92.66;100704.88;5063376;28;20041;-67
2020/12/10 05:41:53;;;;;;;44.55;24.80;;;;;;;0.11;92.84;100709.38;5082659;28;20032;-67
2020/12/10 05:44:26;;;;;;;42.15;24.85;;;;;;;-0.15;92.61;100664.50;5054036;28;20043;-67
2020/12/10 05:47:12;;;;;;;46.28;25.55;;;;;;;0.03;93.24;100701.09;5062347;28;20483;-67
2020/12/10 05:49:37;;;;;;;45.47;25.00;;;;;;;-0.07;93.25;100701.63;5061420;28;20157;-68
2020/12/10 05:52:04;;;;;;;41.08;24.40;;;;;;;-0.06;93.14;100708.56;5064099;28;20067;-69
2020/12/10 05:54:33;;;;;;;42.85;24.90;;;;;;;-0.10;93.26;100707.06;5063075;28;20060;-68
2020/12/10 05:57:00;;;;;;;43.97;25.58;;;;;;;-0.07;92.81;100709.47;5032406;28;20032;-68
2020/12/10 05:59:27;;;;;;;47.42;25.35;;;;;;;-0.10;92.80;100717.56;5065946;28;20043;-68
2020/12/10 06:01:54;;;;;;;42.42;25.05;;;;;;;-0.07;92.86;100711.28;5066147;28;20115;-67
2020/12/10 06:04:20;;;;;;;41.97;24.35;;;;;;;-0.11;93.37;100717.63;5061840;28;20204;-67
2020/12/10 06:06:45;;;;;;;44.00;25.50;;;;;;;-0.14;93.37;100718.66;5051492;28;20517;-68
2020/12/10 06:09:11;;;;;;;43.38;24.25;;;;;;;-0.16;93.51;100717.88;5029490;28;20411;-68
2020/12/10 06:11:38;;;;;;;43.58;25.27;;;;;;;-0.20;93.76;100719.84;5032164;28;20513;-67
2020/12/10 06:14:05;;;;;;;48.58;25.73;;;;;;;-0.36;93.18;100688.41;5061788;28;20056;-67
2020/12/10 06:16:30;;;;;;;43.83;25.90;;;;;;;-0.32;93.39;100696.94;5057758;28;20036;-68
2020/12/10 06:19:03;;;;;;;41.60;23.95;;;;;;;-0.17;92.68;100714.44;5048129;28;20063;-67
2020/12/10 06:21:43;;;;;;;42.45;24.83;;;;;;;-0.12;92.63;100734.28;5080524;28;20060;-67
2020/12/10 06:24:24;;;;;;;44.50;24.17;;;;;;;-0.18;92.33;100717.13;5058434;28;20147;-67
2020/12/10 06:26:50;;;;;;;42.42;24.50;;;;;;;-0.25;93.15;100715.78;5067156;28;20029;-67
2020/12/10 06:29:19;;;;;;;44.15;25.30;;;;;;;-0.23;93.10;100722.63;5045314;28;20133;-67
2020/12/10 06:32:15;;;;;;;45.17;25.15;;;;;;;-0.23;93.41;100724.44;5065782;28;20040;-67
2020/12/10 06:34:51;;;;;;;43.25;24.30;;;;;;;-0.18;93.48;100730.25;5049080;28;20052;-68
2020/12/10 06:37:26;;;;;;;46.42;23.30;;;;;;;-0.33;92.42;100692.63;5057206;28;20044;-68
2020/12/10 06:39:53;;;;;;;39.88;22.40;;;;;;;-0.10;92.64;100722.78;5049320;28;20040;-68
2020/12/10 06:42:19;;;;;;;40.45;22.67;;;;;;;-0.13;92.16;100729.97;5050390;28;20093;-68
2020/12/10 06:44:44;;;;;;;39.45;23.17;;;;;;;-0.11;92.02;100728.13;5064067;28;20028;-68
2020/12/10 06:47:10;;;;;;;37.92;22.52;;;;;;;-0.08;91.84;100726.19;5064778;28;20044;-68
2020/12/10 06:49:37;;;;;;;38.75;22.50;;;;;;;-0.11;91.98;100735.97;5064296;28;20032;-68
2020/12/10 06:52:09;;;;;;;41.10;23.90;;;;;;;-0.13;92.47;100728.22;5065765;28;20919;-68
2020/12/10 06:54:35;;;;;;;38.80;22.88;;;;;;;-0.14;92.68;100728.31;5059360;28;20059;-68
2020/12/10 06:57:05;;;;;;;40.97;23.00;;;;;;;-0.17;92.57;100724.06;5064396;28;20041;-68
2020/12/10 06:59:39;;;;;;;36.55;21.55;;;;;;;-0.13;92.08;100722.09;5064138;28;20044;-68
2020/12/10 07:02:14;;;;;;;40.75;22.23;;;;;;;-0.19;91.93;100718.06;5039516;28;20074;-67
2020/12/10 07:07:24;;;;;;;36.97;22.75;;;;;;;-0.22;92.09;100718.25;5066282;28;20041;-68
2020/12/10 07:09:57;;;;;;;37.20;21.27;;;;;;;-0.21;92.65;100717.31;5065293;28;20115;-68
2020/12/10 07:12:33;;;;;;;39.35;22.20;;;;;;;-0.23;92.66;100722.63;5056399;28;20074;-68
2020/12/10 07:15:26;;;;;;;40.13;21.88;;;;;;;-0.20;92.20;100726.84;5056764;28;20403;-68
2020/12/10 07:17:52;;;;;;;39.95;21.17;;;;;;;-0.46;92.04;100695.06;5059072;28;20132;-69
2020/12/10 07:20:18;;;;;;;38.38;23.05;;;;;;;-0.29;92.23;100724.75;5052216;28;20071;-68
2020/12/10 07:22:44;;;;;;;42.03;22.45;;;;;;;-0.28;92.58;100731.69;5035711;28;20032;-68
2020/12/10 07:25:10;;;;;;;35.97;21.65;;;;;;;-0.23;91.88;100717.38;5072985;28;20451;-68
2020/12/10 07:27:36;;;;;;;40.20;23.05;;;;;;;-0.27;92.42;100722.91;5055592;28;20039;-69
2020/12/10 07:30:27;;;;;;;42.13;21.95;;;;;;;-0.28;92.80;100724.69;5051575;28;20050;-68
2020/12/10 07:32:54;;;;;;;37.67;21.52;;;;;;;-0.27;92.29;100728.13;5079585;28;20456;-68
2020/12/10 07:35:41;;;;;;;35.33;20.83;;;;;;;-0.24;92.13;100741.09;5068677;28;20525;-68
2020/12/10 07:38:16;;;;;;;37.30;21.35;;;;;;;-0.34;92.22;100720.59;5072589;28;20087;-68
2020/12/10 07:40:41;;;;;;;36.78;20.98;;;;;;;-0.27;92.00;100734.22;5073471;28;20043;-68
2020/12/10 07:43:08;;;;;;;37.22;21.20;;;;;;;-0.20;91.89;100730.34;5059238;28;20411;-69
2020/12/10 07:45:34;;;;;;;39.42;22.00;;;;;;;-0.23;92.17;100729.66;5062865;28;20048;-68
2020/12/10 07:48:01;;;;;;;38.40;20.38;;;;;;;-0.20;91.88;100729.47;5040516;28;20024;-68
2020/12/10 07:50:29;;;;;;;33.35;19.63;;;;;;;-0.14;91.81;100741.44;5058009;28;20032;-68
2020/12/10 07:52:55;;;;;;;34.58;20.05;;;;;;;-0.38;91.63;100698.13;5059378;28;20115;-68
2020/12/10 07:55:22;;;;;;;34.75;21.30;;;;;;;-0.29;91.48;100711.66;5043507;28;20052;-68
2020/12/10 07:58:28;;;;;;;37.40;21.17;;;;;;;-0.20;91.79;100716.34;5050651;28;20043;-68
2020/12/10 08:00:53;;;;;;;30.98;19.08;;;;;;;0.06;91.75;100737.66;4973042;28;20545;-68
2020/12/10 08:03:26;;;;;;;35.85;20.67;;;;;;;0.15;90.74;100735.34;5056492;28;20066;-68
2020/12/10 08:06:18;;;;;;;34.08;19.80;;;;;;;0.19;90.42;100738.66;5061568;28;20075;-68
2020/12/10 08:08:48;;;;;;;32.85;19.95;;;;;;;0.17;90.61;100745.78;5061047;28;20041;-68
2020/12/10 08:11:18;;;;;;;31.55;18.90;;;;;;;0.24;90.27;100741.84;5057809;28;20059;-69
2020/12/10 08:14:08;;;;;;;32.65;18.88;;;;;;;0.26;90.36;100745.22;5058898;28;20036;-69
2020/12/10 08:17:00;;;;;;;32.50;18.30;;;;;;;0.29;90.19;100747.69;5058620;28;20083;-67
2020/12/10 08:19:34;;;;;;;30.88;18.20;;;;;;;0.09;90.17;100713.84;5058821;28;20092;-69
2020/12/10 08:22:00;;;;;;;28.73;17.45;;;;;;;0.35;90.09;100756.13;5056889;28;21359;-67
2020/12/10 08:24:35;;;;;;;31.52;18.88;;;;;;;0.18;89.88;100722.97;5051203;28;20110;-66
2020/12/10 08:27:01;;;;;;;29.70;18.23;;;;;;;0.42;89.45;100757.47;5056267;28;20044;-68
2020/12/10 08:29:27;;;;;;;29.20;17.70;;;;;;;0.37;89.21;100749.00;5058125;28;20084;-67
2020/12/10 08:32:06;;;;;;;30.63;17.80;;;;;;;0.39;89.25;100755.00;5054169;28;20048;-67
2020/12/10 08:34:31;;;;;;;29.40;17.80;;;;;;;0.39;89.43;100750.63;5052178;28;20324;-68
2020/12/10 08:37:09;;;;;;;30.73;18.45;;;;;;;-0.24;89.66;100654.53;5053947;28;20048;-67
2020/12/10 08:39:39;;;;;;;32.63;18.52;;;;;;;0.37;90.20;100747.25;5056129;28;20028;-67
2020/12/10 08:42:05;;;;;;;30.02;17.50;;;;;;;0.44;89.82;100745.09;5057574;28;20494;-68
2020/12/10 08:44:46;;;;;;;31.67;19.65;;;;;;;0.51;89.51;100735.09;5049658;28;20044;-68
2020/12/10 08:47:12;;;;;;;29.85;17.52;;;;;;;0.54;89.06;100746.25;5072357;28;20060;-68
2020/12/10 08:49:37;;;;;;;26.02;16.98;;;;;;;0.52;89.17;100742.03;5058030;28;20059;-68
2020/12/10 08:52:03;;;;;;;27.20;16.85;;;;;;;0.52;88.26;100737.59;5057575;28;20041;-67
2020/12/10 08:54:28;;;;;;;30.60;17.73;;;;;;;0.52;88.97;100744.66;5060202;28;20093;-67
2020/12/10 08:57:21;;;;;;;27.40;17.33;;;;;;;0.57;88.68;100740.81;5064958;28;20044;-68
2020/12/10 08:59:48;;;;;;;32.45;18.33;;;;;;;0.56;89.65;100747.00;5061709;28;20072;-67
2020/12/10 09:02:13;;;;;;;29.48;18.83;;;;;;;0.56;89.18;100726.00;5060918;28;20041;-68
2020/12/10 09:04:39;;;;;;;31.38;18.55;;;;;;;0.61;88.31;100749.34;5062931;28;20036;-68
2020/12/10 09:07:04;;;;;;;29.70;19.13;;;;;;;0.53;88.50;100741.94;5061954;28;20044;-68
2020/12/10 09:09:30;;;;;;;32.80;19.65;;;;;;;0.63;88.33;100759.75;5063313;28;20697;-68
2020/12/10 09:11:56;;;;;;;32.58;19.45;;;;;;;0.66;87.99;100754.31;5062885;28;20037;-67
2020/12/10 09:14:29;;;;;;;31.40;19.42;;;;;;;0.80;88.27;100756.16;5057406;28;20048;-68
2020/12/10 09:16:55;;;;;;;28.30;18.10;;;;;;;0.76;87.66;100755.47;5063537;28;20056;-67
2020/12/10 09:19:21;;;;;;;29.42;19.02;;;;;;;0.86;88.09;100755.75;5080623;28;20055;-69
2020/12/10 09:21:46;;;;;;;30.20;18.52;;;;;;;0.93;87.58;100761.50;5064965;28;20055;-67
2020/12/10 09:24:12;;;;;;;26.70;17.95;;;;;;;0.93;86.50;100749.22;5065054;28;20329;-67
2020/12/10 09:26:38;;;;;;;33.00;19.15;;;;;;;0.88;87.30;100757.34;5066305;28;20487;-68
2020/12/10 09:29:05;;;;;;;30.60;18.20;;;;;;;0.84;87.71;100747.13;5067931;28;20033;-68
2020/12/10 09:31:32;;;;;;;32.92;19.25;;;;;;;0.73;86.99;100726.78;5067810;28;20028;-68
2020/12/10 09:33:58;;;;;;;28.08;17.75;;;;;;;1.01;86.64;100740.88;5044542;28;20131;-68
2020/12/10 09:36:27;;;;;;;33.30;19.10;;;;;;;1.00;86.54;100747.88;5066627;28;20076;-68
2020/12/10 09:38:52;;;;;;;32.75;18.90;;;;;;;1.02;87.25;100753.91;5066918;28;20569;-68
2020/12/10 09:41:22;;;;;;;30.80;18.48;;;;;;;1.00;87.06;100750.50;5068590;28;20086;-67
2020/12/10 09:43:47;;;;;;;29.88;18.15;;;;;;;1.10;85.92;100745.53;5064989;28;20033;-67
2020/12/10 09:46:14;;;;;;;29.50;18.00;;;;;;;1.01;86.14;100739.06;5068453;28;20579;-67
2020/12/10 09:48:39;;;;;;;27.73;17.58;;;;;;;1.04;86.64;100748.53;5066859;28;20049;-68
2020/12/10 09:51:05;;;;;;;28.75;18.60;;;;;;;1.08;87.12;100743.97;5060165;28;20048;-68
2020/12/10 09:53:39;;;;;;;27.88;17.60;;;;;;;1.18;86.24;100740.66;5063566;28;20040;-68
2020/12/10 09:56:38;;;;;;;31.40;18.58;;;;;;;1.13;86.90;100748.00;5066027;28;20048;-68
2020/12/10 09:58:56;;;;;;;31.92;18.83;;;;;;;0.49;87.57;100648.50;5065181;28;20502;-68
2020/12/10 10:01:21;;;;;;;33.75;19.50;;;;;;;1.04;87.59;100732.78;5066014;28;20086;-68
2020/12/10 10:03:47;;;;;;;30.40;17.83;;;;;;;1.02;87.26;100729.38;5061294;28;20098;-68
2020/12/10 10:06:13;;;;;;;29.58;18.38;;;;;;;1.13;87.31;100741.88;5064342;28;20133;-68
2020/12/10 10:08:39;;;;;;;29.00;17.77;;;;;;;1.22;86.99;100738.69;5067585;28;20036;-68
2020/12/10 10:11:04;;;;;;;27.38;17.92;;;;;;;1.31;85.87;100737.25;5066488;28;20110;-69
2020/12/10 10:13:31;;;;;;;28.90;18.27;;;;;;;1.27;86.83;100738.41;5065207;28;20036;-68
2020/12/10 10:15:57;;;;;;;30.40;17.27;;;;;;;1.32;86.57;100731.91;5064475;28;20137;-69
2020/12/10 10:18:28;;;;;;;30.00;18.92;;;;;;;1.37;85.79;100734.25;5066679;28;21081;-66
2020/12/10 10:20:53;;;;;;;28.92;17.90;;;;;;;1.41;86.55;100737.53;5065285;28;20491;-67
2020/12/10 10:23:19;;;;;;;26.98;17.10;;;;;;;1.40;86.25;100731.44;5061798;28;20298;-66
2020/12/10 10:25:45;;;;;;;26.23;17.35;;;;;;;1.41;86.30;100734.91;5065380;28;20041;-68
2020/12/10 10:29:19;;;;;;;27.00;17.38;;;;;;;1.53;86.00;100732.34;5042662;28;20162;-67
2020/12/10 10:31:45;;;;;;;28.13;18.27;;;;;;;1.44;85.49;100700.53;5006229;28;20053;-66
2020/12/10 10:34:15;;;;;;;29.80;19.15;;;;;;;1.33;85.80;100719.59;5035620;28;20045;-67
2020/12/10 10:36:40;;;;;;;30.88;18.60;;;;;;;1.44;85.97;100742.59;5027247;28;20045;-69
2020/12/10 10:39:06;;;;;;;29.98;18.95;;;;;;;1.40;86.44;100741.97;5043252;28;20045;-68
2020/12/10 10:41:31;;;;;;;30.73;18.75;;;;;;;1.53;85.95;100742.00;5044924;28;20107;-67
2020/12/10 10:43:57;;;;;;;29.08;19.52;;;;;;;1.61;85.51;100741.53;5042797;28;20052;-68
2020/12/10 10:46:23;;;;;;;27.65;17.60;;;;;;;1.66;84.67;100744.72;5058639;28;20403;-68
2020/12/10 10:48:48;;;;;;;31.88;19.65;;;;;;;1.55;85.59;100736.69;5067818;28;20032;-67
2020/12/10 10:51:15;;;;;;;31.95;19.95;;;;;;;1.64;85.44;100741.34;5065049;28;20029;-68
2020/12/10 10:53:41;;;;;;;33.00;20.48;;;;;;;1.62;85.59;100743.22;5063111;28;20040;-68
2020/12/10 10:56:06;;;;;;;30.48;19.15;;;;;;;1.61;85.64;100747.66;5066034;28;20044;-68
2020/12/10 10:58:32;;;;;;;28.38;18.30;;;;;;;1.65;85.14;100745.66;5068414;28;20557;-68
2020/12/10 11:00:57;;;;;;;34.92;20.35;;;;;;;1.66;85.59;100740.28;5063676;28;20043;-68
2020/12/10 11:03:23;;;;;;;32.35;20.10;;;;;;;1.73;85.66;100747.81;5062930;28;20123;-68
2020/12/10 11:05:49;;;;;;;29.95;19.63;;;;;;;1.79;85.18;100747.41;5065063;28;20032;-68
2020/12/10 11:08:14;;;;;;;31.60;20.45;;;;;;;1.20;84.66;100645.94;5067489;28;20047;-68
2020/12/10 11:10:40;;;;;;;31.80;20.55;;;;;;;1.87;85.39;100745.13;5064704;28;20036;-68
2020/12/10 11:13:25;;;;;;;34.63;19.70;;;;;;;1.32;84.41;100641.66;5062288;28;20506;-68
2020/12/10 11:15:51;;;;;;;31.38;19.92;;;;;;;1.94;85.32;100732.44;5059963;28;20048;-68
2020/12/10 11:18:16;;;;;;;31.42;20.17;;;;;;;1.92;84.80;100729.03;5064211;28;20036;-68
2020/12/10 11:20:42;;;;;;;33.53;20.63;;;;;;;2.03;84.71;100723.09;5066744;28;20040;-68
2020/12/10 11:23:07;;;;;;;33.00;19.98;;;;;;;1.94;84.97;100714.84;5061495;28;20711;-68
2020/12/10 11:25:55;;;;;;;29.35;18.83;;;;;;;1.99;84.23;100709.25;5065907;28;20063;-68